Terminal Aerodrome Forecast
Issued by NWS Greer, SC

Home | Current Version | Previous Version | Text Only | Print | Product List | Glossary On
Versions: 1 2 3 4 5 6 7 8 9 10 11 12 13 14 15 16 17 18 19 20 21 22 23 24 25 26 27 28 29 30 31 32 33 34 35 36
000
FTUS42 KGSP 291720
TAFAVL
TAF
KAVL 291720Z 2918/3018 31005KT P6SM VCTS BKN045CB
      TEMPO 2919/2923 VRB20G30KT 4SM TSRA BR BKN035CB
     FM300200 32004KT P6SM OVC060
     FM300900 34003KT 4SM BR BKN030
     FM301400 34005KT P6SM BKN060=

USA.gov is the U.S. government's official web portal to all federal, state and local government web resources and services.